createdAt,value
2018-01-22T00:01:25.980Z,19.87
2018-01-22T00:03:54.812Z,20.63
2018-01-22T00:06:23.542Z,19.70
2018-01-22T00:08:52.417Z,19.07
2018-01-22T00:11:21.151Z,20.63
2018-01-22T00:13:50.185Z,19.77
2018-01-22T00:16:18.896Z,20.47
2018-01-22T00:19:46.712Z,18.93
2018-01-22T00:22:16.523Z,22.47
2018-01-22T00:24:45.340Z,19.27
2018-01-22T00:27:14.261Z,20.77
2018-01-22T00:29:42.984Z,18.90
2018-01-22T00:32:11.724Z,18.67
2018-01-22T00:34:40.787Z,18.60
2018-01-22T00:37:11.050Z,20.30
2018-01-22T00:39:40.159Z,20.20
2018-01-22T00:42:09.040Z,18.50
2018-01-22T00:44:37.781Z,20.17
2018-01-22T00:47:06.612Z,19.70
2018-01-22T00:49:35.302Z,18.80
2018-01-22T00:52:04.189Z,18.43
2018-01-22T00:54:32.949Z,18.93
2018-01-22T00:57:01.829Z,19.77
2018-01-22T00:59:30.628Z,19.73
2018-01-22T01:01:59.544Z,19.20
2018-01-22T01:04:28.437Z,19.77
2018-01-22T01:06:57.191Z,21.83
2018-01-22T01:09:25.992Z,22.47
2018-01-22T01:11:54.544Z,21.07
2018-01-22T01:14:23.363Z,20.00
2018-01-22T01:16:51.872Z,22.07
2018-01-22T01:19:20.936Z,20.47
2018-01-22T01:21:49.665Z,21.70
2018-01-22T01:24:18.507Z,21.00
2018-01-22T01:26:47.224Z,19.73
2018-01-22T01:29:16.072Z,21.40
2018-01-22T01:31:44.796Z,21.37
2018-01-22T01:34:13.664Z,20.37
2018-01-22T01:36:42.757Z,21.40
2018-01-22T01:39:11.453Z,21.40
2018-01-22T01:41:40.357Z,20.90
2018-01-22T01:44:09.213Z,21.07
2018-01-22T01:46:37.938Z,19.47
2018-01-22T01:49:06.908Z,18.27
2018-01-22T01:51:35.684Z,19.20
2018-01-22T01:54:04.369Z,19.90
2018-01-22T01:56:33.497Z,18.80
2018-01-22T01:59:02.017Z,21.07
2018-01-22T02:01:30.868Z,20.00
2018-01-22T02:03:59.608Z,18.27
2018-01-22T02:06:28.528Z,21.23
2018-01-22T02:08:58.364Z,20.60
2018-01-22T02:11:26.897Z,20.10
2018-01-22T02:13:55.528Z,20.23
2018-01-22T02:16:24.244Z,20.00
2018-01-22T02:18:53.060Z,18.90
2018-01-22T02:21:21.699Z,21.23
2018-01-22T02:23:50.487Z,18.27
2018-01-22T02:26:19.186Z,19.90
2018-01-22T02:28:47.856Z,18.73
2018-01-22T02:31:16.750Z,19.90
2018-01-22T02:33:45.596Z,18.70
2018-01-22T02:36:14.132Z,19.57
2018-01-22T02:38:42.831Z,20.03
2018-01-22T02:41:11.517Z,20.30
2018-01-22T02:43:40.330Z,20.27
2018-01-22T02:46:11.921Z,20.33
2018-01-22T02:48:40.772Z,19.87
2018-01-22T02:51:09.398Z,20.57
2018-01-22T02:53:38.006Z,19.87
2018-01-22T02:56:06.715Z,20.77
2018-01-22T02:58:35.516Z,19.07
2018-01-22T03:01:04.240Z,19.57
2018-01-22T03:03:33.113Z,20.77
2018-01-22T03:06:01.904Z,21.30
2018-01-22T03:08:30.587Z,21.07
2018-01-22T03:10:59.125Z,20.33
2018-01-22T03:13:27.740Z,20.70
2018-01-22T03:15:56.463Z,20.17
2018-01-22T03:18:25.189Z,21.10
2018-01-22T03:20:54.033Z,17.90
2018-01-22T03:23:22.912Z,18.37
2018-01-22T03:25:52.040Z,19.40
2018-01-22T03:28:20.924Z,20.20
2018-01-22T03:30:49.691Z,18.80
2018-01-22T03:33:18.570Z,19.40
2018-01-22T03:35:47.220Z,21.50
2018-01-22T03:38:15.865Z,22.03
2018-01-22T03:40:44.612Z,21.03
2018-01-22T03:43:13.389Z,21.47
2018-01-22T03:45:41.931Z,21.87
2018-01-22T03:48:10.591Z,22.83
2018-01-22T03:50:39.280Z,21.70
2018-01-22T03:53:07.973Z,23.47
2018-01-22T03:55:36.857Z,23.40
2018-01-22T03:58:05.713Z,22.57
2018-01-22T04:00:34.668Z,22.57
2018-01-22T04:03:03.578Z,21.50
2018-01-22T04:05:32.280Z,21.50
2018-01-22T04:08:01.073Z,22.53
2018-01-22T04:10:29.804Z,21.43
2018-01-22T04:12:58.683Z,23.60
2018-01-22T04:15:27.369Z,21.80
2018-01-22T04:17:56.080Z,21.97
2018-01-22T04:20:24.945Z,25.97
2018-01-22T04:22:53.817Z,23.20
2018-01-22T04:25:22.745Z,24.40
2018-01-22T04:27:52.004Z,24.53
2018-01-22T04:30:20.540Z,23.70
2018-01-22T04:32:49.152Z,23.70
2018-01-22T04:35:17.840Z,24.67
2018-01-22T04:37:46.539Z,22.63
2018-01-22T04:40:15.204Z,22.87
2018-01-22T04:42:44.004Z,26.13
2018-01-22T04:45:12.872Z,25.43
2018-01-22T04:47:41.606Z,23.53
2018-01-22T04:50:10.506Z,25.50
2018-01-22T04:52:39.205Z,25.70
2018-01-22T04:55:08.101Z,27.23
2018-01-22T04:57:36.754Z,26.50
2018-01-22T05:03:19.749Z,28.40
2018-01-22T05:05:48.322Z,28.07
2018-01-22T05:08:16.842Z,27.80
2018-01-22T05:10:45.497Z,26.30
2018-01-22T05:13:14.275Z,25.60
2018-01-22T05:15:43.777Z,27.17
2018-01-22T05:18:12.469Z,26.47
2018-01-22T05:20:41.252Z,27.23
2018-01-22T05:23:09.920Z,27.30
2018-01-22T05:25:38.569Z,27.63
2018-01-22T05:28:07.142Z,27.93
2018-01-22T05:30:35.894Z,27.20
2018-01-22T05:33:04.640Z,27.23
2018-01-22T05:35:33.374Z,27.93
2018-01-22T05:38:02.033Z,28.70
2018-01-22T05:40:30.716Z,28.73
2018-01-22T05:42:59.372Z,25.90
2018-01-22T05:45:27.915Z,28.30
2018-01-22T05:47:56.664Z,28.90
2018-01-22T05:50:25.287Z,27.10
2018-01-22T05:52:54.090Z,27.30
2018-01-22T05:55:22.838Z,28.03
2018-01-22T05:57:52.017Z,28.17
2018-01-22T06:00:21.646Z,27.27
2018-01-22T06:02:50.244Z,27.23
2018-01-22T06:05:18.844Z,27.13
2018-01-22T06:07:50.838Z,29.60
2018-01-22T06:10:19.870Z,27.13
2018-01-22T06:12:48.421Z,28.63
2018-01-22T06:15:17.168Z,28.17
2018-01-22T06:17:46.160Z,27.53
2018-01-22T06:20:14.820Z,25.73
2018-01-22T06:22:43.437Z,27.53
2018-01-22T06:25:12.448Z,27.80
2018-01-22T06:27:41.004Z,25.80
2018-01-22T06:30:09.741Z,27.80
2018-01-22T06:32:38.372Z,27.87
2018-01-22T06:35:07.162Z,28.27
2018-01-22T06:37:36.159Z,27.63
2018-01-22T06:40:04.760Z,26.77
2018-01-22T06:42:33.475Z,27.57
2018-01-22T06:45:02.013Z,27.00
2018-01-22T06:47:30.758Z,26.53
2018-01-22T06:49:59.714Z,28.57
2018-01-22T06:52:28.455Z,25.20
2018-01-22T06:54:57.071Z,25.70
2018-01-22T06:57:25.589Z,25.80
2018-01-22T06:59:54.160Z,25.23
2018-01-22T07:02:22.716Z,24.70
2018-01-22T07:04:51.329Z,26.27
2018-01-22T07:07:20.303Z,24.60
2018-01-22T07:09:48.880Z,24.93
2018-01-22T07:12:17.429Z,25.97
2018-01-22T07:14:46.366Z,25.37
2018-01-22T07:17:14.946Z,24.53
2018-01-22T07:19:43.432Z,25.57
2018-01-22T07:22:12.185Z,23.90
2018-01-22T07:24:40.876Z,24.60
2018-01-22T07:27:09.492Z,24.47
2018-01-22T07:29:38.185Z,24.93
2018-01-22T07:32:07.145Z,25.20
2018-01-22T07:34:35.935Z,24.10
2018-01-22T07:37:04.657Z,25.47
2018-01-22T07:39:33.176Z,24.90
2018-01-22T07:42:02.069Z,24.70
2018-01-22T07:44:30.973Z,24.53
2018-01-22T07:46:59.789Z,22.83
2018-01-22T07:49:28.249Z,25.57
2018-01-22T07:51:56.829Z,23.47
2018-01-22T07:54:26.289Z,24.03
2018-01-22T07:56:55.702Z,24.77
2018-01-22T07:59:24.515Z,24.50
2018-01-22T08:01:53.533Z,22.47
2018-01-22T08:04:23.608Z,26.83
2018-01-22T08:06:52.527Z,25.70
2018-01-22T08:09:21.168Z,22.87
2018-01-22T08:11:49.733Z,22.90
2018-01-22T08:14:18.280Z,22.03
2018-01-22T08:16:47.050Z,23.43
2018-01-22T08:19:15.617Z,23.20
2018-01-22T08:21:44.149Z,22.47
2018-01-22T08:24:12.645Z,22.20
2018-01-22T08:26:41.320Z,19.60
2018-01-22T08:29:10.460Z,21.97
2018-01-22T08:31:39.200Z,24.50
2018-01-22T08:34:08.875Z,22.67
2018-01-22T08:36:37.572Z,22.03
2018-01-22T08:39:06.520Z,22.63
2018-01-22T08:41:35.455Z,22.07
2018-01-22T08:44:04.442Z,22.40
2018-01-22T08:46:33.496Z,22.47
2018-01-22T08:49:03.169Z,19.70
2018-01-22T08:51:33.353Z,22.03
2018-01-22T08:54:02.074Z,22.57
2018-01-22T08:56:31.214Z,20.70
2018-01-22T08:58:59.912Z,19.30
2018-01-22T09:01:28.414Z,21.37
2018-01-22T09:03:57.023Z,22.10
2018-01-22T09:06:25.676Z,20.40
2018-01-22T09:08:54.425Z,20.80
2018-01-22T09:11:23.189Z,19.50
2018-01-22T09:13:52.180Z,20.40
2018-01-22T09:16:27.399Z,20.73
2018-01-22T09:18:56.143Z,19.47
2018-01-22T09:21:26.033Z,18.10
2018-01-22T09:23:54.579Z,18.40
2018-01-22T09:26:23.101Z,17.87
2018-01-22T09:28:51.675Z,18.97
2018-01-22T09:31:20.221Z,20.80
2018-01-22T09:33:48.745Z,18.37
2018-01-22T09:36:18.480Z,18.63
2018-01-22T09:38:47.237Z,17.70
2018-01-22T09:41:16.020Z,18.00
2018-01-22T09:43:44.792Z,18.43
2018-01-22T09:46:13.595Z,17.90
2018-01-22T09:48:42.629Z,16.53
2018-01-22T09:51:11.454Z,16.30
2018-01-22T09:53:40.189Z,16.10
2018-01-22T09:56:08.847Z,15.50
2018-01-22T09:58:37.426Z,16.40
2018-01-22T10:01:06.613Z,16.77
2018-01-22T10:03:35.348Z,17.23
2018-01-22T10:06:03.985Z,14.57
2018-01-22T10:08:33.495Z,17.33
2018-01-22T10:11:02.228Z,17.10
2018-01-22T10:13:30.854Z,15.53
2018-01-22T10:15:59.560Z,15.77
2018-01-22T10:18:28.129Z,17.60
2018-01-22T10:20:56.729Z,18.00
2018-01-22T10:23:25.557Z,16.83
2018-01-22T10:25:54.474Z,15.57
2018-01-22T10:28:23.454Z,15.00
2018-01-22T10:30:52.270Z,16.60
2018-01-22T10:33:21.173Z,16.53
2018-01-22T10:35:50.205Z,16.30
2018-01-22T10:38:19.371Z,16.63
2018-01-22T10:40:48.608Z,16.73
2018-01-22T10:43:17.223Z,16.33
2018-01-22T10:45:46.035Z,15.70
2018-01-22T10:48:14.616Z,16.10
2018-01-22T10:50:43.397Z,16.97
2018-01-22T10:53:12.231Z,17.63
2018-01-22T10:55:41.024Z,17.60
2018-01-22T10:58:09.574Z,16.10
2018-01-22T11:00:38.348Z,15.20
2018-01-22T11:03:07.011Z,17.00
2018-01-22T11:05:35.846Z,15.40
2018-01-22T11:08:04.652Z,16.87
2018-01-22T11:10:33.326Z,16.77
2018-01-22T11:13:01.780Z,16.77
2018-01-22T11:15:34.859Z,15.83
2018-01-22T11:18:03.483Z,17.00
2018-01-22T11:20:32.446Z,16.97
2018-01-22T11:23:01.336Z,16.30
2018-01-22T11:25:29.829Z,16.03
2018-01-22T11:27:58.472Z,15.93
2018-01-22T11:30:27.340Z,14.60
2018-01-22T11:32:59.346Z,17.20
2018-01-22T11:35:28.609Z,15.13
2018-01-22T11:37:58.748Z,15.30
2018-01-22T11:40:27.447Z,15.30
2018-01-22T11:42:56.224Z,16.57
2018-01-22T11:45:25.360Z,16.70
2018-01-22T11:47:54.261Z,16.57
2018-01-22T11:50:23.174Z,17.00
2018-01-22T11:52:52.737Z,15.73
2018-01-22T11:55:21.406Z,16.67
2018-01-22T11:57:50.098Z,15.77
2018-01-22T12:00:18.707Z,17.90
2018-01-22T12:02:47.582Z,17.03
2018-01-22T12:05:16.615Z,15.93
2018-01-22T12:07:45.443Z,16.83
2018-01-22T12:10:14.504Z,15.80
2018-01-22T12:12:42.984Z,15.70
2018-01-22T12:15:12.755Z,15.67
2018-01-22T12:17:42.042Z,14.83
2018-01-22T12:20:10.643Z,15.53
2018-01-22T12:22:39.330Z,17.53
2018-01-22T12:25:07.839Z,15.20
2018-01-22T12:27:36.755Z,16.00
2018-01-22T12:30:05.498Z,15.87
2018-01-22T12:32:34.038Z,14.90
2018-01-22T12:35:02.735Z,17.30
2018-01-22T12:37:31.786Z,16.20
2018-01-22T12:40:00.935Z,14.83
2018-01-22T12:42:29.810Z,16.43
2018-01-22T12:44:58.585Z,16.60
2018-01-22T12:47:27.625Z,15.30
2018-01-22T12:49:56.500Z,15.67
2018-01-22T12:52:25.168Z,14.70
2018-01-22T12:54:53.980Z,15.83
2018-01-22T12:57:22.571Z,15.50
2018-01-22T12:59:51.188Z,16.77
2018-01-22T13:02:20.520Z,16.57
2018-01-22T13:04:49.302Z,14.60
2018-01-22T13:07:18.609Z,15.50
2018-01-22T13:09:47.353Z,16.73
2018-01-22T13:12:15.962Z,16.30
2018-01-22T13:14:44.757Z,16.73
2018-01-22T13:17:13.693Z,15.60
2018-01-22T13:19:42.228Z,15.37
2018-01-22T13:22:10.883Z,16.07
2018-01-22T13:24:39.777Z,17.03
2018-01-22T13:27:08.760Z,16.10
2018-01-22T13:29:37.373Z,17.00
2018-01-22T13:32:06.178Z,16.03
2018-01-22T13:34:34.716Z,17.27
2018-01-22T13:37:03.535Z,15.60
2018-01-22T13:39:32.304Z,16.00
2018-01-22T13:42:01.004Z,16.33
2018-01-22T13:44:29.611Z,15.30
2018-01-22T13:46:58.453Z,14.83
2018-01-22T13:49:27.721Z,14.80
2018-01-22T13:51:56.986Z,15.93
2018-01-22T13:54:25.704Z,16.83
2018-01-22T13:56:54.393Z,15.07
2018-01-22T13:59:22.999Z,16.00
2018-01-22T14:01:52.052Z,15.63
2018-01-22T14:04:23.776Z,14.57
2018-01-22T14:06:53.812Z,15.57
2018-01-22T14:09:22.419Z,14.80
2018-01-22T14:11:51.043Z,16.57
2018-01-22T14:14:19.544Z,15.50
2018-01-22T14:16:48.665Z,14.13
2018-01-22T14:19:17.173Z,13.77
2018-01-22T14:21:45.807Z,14.83
2018-01-22T14:24:14.497Z,13.90
2018-01-22T14:26:43.735Z,13.10
2018-01-22T14:29:12.471Z,13.23
2018-01-22T14:31:41.206Z,15.30
2018-01-22T14:34:09.864Z,14.07
2018-01-22T14:36:38.669Z,13.57
2018-01-22T14:39:07.296Z,13.80
2018-01-22T14:41:35.998Z,12.97
2018-01-22T14:44:04.704Z,11.83
2018-01-22T14:46:33.501Z,13.40
2018-01-22T14:49:02.019Z,12.50
2018-01-22T14:51:30.765Z,13.70
2018-01-22T14:53:59.760Z,13.37
2018-01-22T14:56:30.696Z,14.40
2018-01-22T14:58:59.574Z,14.03
2018-01-22T15:01:28.512Z,13.27
2018-01-22T15:03:57.108Z,13.70
2018-01-22T15:06:25.679Z,12.77
2018-01-22T15:08:54.300Z,13.83
2018-01-22T15:11:23.050Z,15.40
2018-01-22T15:13:51.886Z,13.33
2018-01-22T15:16:20.532Z,14.00
2018-01-22T15:18:49.028Z,15.70
2018-01-22T15:21:17.635Z,14.77
2018-01-22T15:23:46.158Z,14.13
2018-01-22T15:26:14.809Z,13.03
2018-01-22T15:28:43.616Z,14.60
2018-01-22T15:31:13.749Z,14.80
2018-01-22T15:33:42.374Z,14.00
2018-01-22T15:36:10.956Z,13.50
2018-01-22T15:38:39.800Z,13.53
2018-01-22T15:41:09.213Z,13.10
2018-01-22T15:43:38.616Z,13.20
2018-01-22T15:46:08.360Z,12.80
2018-01-22T15:48:37.180Z,15.27
2018-01-22T15:51:05.821Z,14.27
2018-01-22T15:53:34.931Z,13.27
2018-01-22T15:56:03.884Z,14.37
2018-01-22T15:58:32.752Z,15.43
2018-01-22T16:01:02.620Z,12.70
2018-01-22T16:03:31.818Z,13.20
2018-01-22T16:06:01.349Z,14.03
2018-01-22T16:08:29.931Z,13.07
2018-01-22T16:10:58.936Z,13.87
2018-01-22T16:13:27.654Z,13.50
2018-01-22T16:15:56.390Z,13.93
2018-01-22T16:18:25.300Z,13.13
2018-01-22T16:20:54.040Z,13.60
2018-01-22T16:23:22.651Z,14.00
2018-01-22T16:25:51.468Z,13.37
2018-01-22T16:28:20.184Z,13.53
2018-01-22T16:30:48.897Z,12.40
2018-01-22T16:33:17.747Z,12.80
2018-01-22T16:35:46.477Z,15.77
2018-01-22T16:38:15.256Z,13.33
2018-01-22T16:40:44.360Z,13.43
2018-01-22T16:43:13.115Z,12.80
2018-01-22T16:45:41.793Z,13.70
2018-01-22T16:48:10.315Z,12.80
2018-01-22T16:50:39.277Z,13.73
2018-01-22T16:53:07.873Z,13.73
2018-01-22T16:55:36.403Z,12.33
2018-01-22T16:58:05.042Z,12.37
2018-01-22T17:00:33.600Z,12.60
2018-01-22T17:03:02.686Z,13.50
2018-01-22T17:05:31.370Z,12.67
2018-01-22T17:08:00.075Z,13.07
2018-01-22T17:10:28.948Z,13.90
2018-01-22T17:12:57.777Z,13.90
2018-01-22T17:15:26.371Z,14.47
2018-01-22T17:17:54.924Z,14.13
2018-01-22T17:20:29.943Z,14.80
2018-01-22T17:22:58.543Z,13.50
2018-01-22T17:25:27.174Z,15.67
2018-01-22T17:27:56.721Z,16.07
2018-01-22T17:30:26.124Z,15.53
2018-01-22T17:32:54.848Z,16.20
2018-01-22T17:35:23.788Z,14.60
2018-01-22T17:37:52.957Z,16.13
2018-01-22T17:40:22.002Z,16.47
2018-01-22T17:42:50.536Z,15.90
2018-01-22T17:45:19.813Z,17.13
2018-01-22T17:47:48.955Z,18.83
2018-01-22T17:50:18.353Z,16.70
2018-01-22T17:52:47.025Z,18.87
2018-01-22T17:55:15.748Z,17.40
2018-01-22T17:57:44.476Z,18.67
2018-01-22T18:00:13.169Z,18.43
2018-01-22T18:02:42.116Z,19.97
2018-01-22T18:05:20.937Z,19.00
2018-01-22T18:07:49.711Z,18.73
2018-01-22T18:10:21.559Z,19.33
2018-01-22T18:12:50.403Z,20.00
2018-01-22T18:15:18.947Z,21.00
2018-01-22T18:17:47.613Z,21.00
2018-01-22T18:20:16.448Z,22.47
2018-01-22T18:22:44.900Z,19.93
2018-01-22T18:25:13.517Z,22.97
2018-01-22T18:27:42.571Z,20.87
2018-01-22T18:30:11.577Z,24.57
2018-01-22T18:32:40.253Z,22.50
2018-01-22T18:35:08.793Z,22.30
2018-01-22T18:37:38.255Z,22.37
2018-01-22T18:40:07.047Z,21.70
2018-01-22T18:42:35.656Z,23.10
2018-01-22T18:45:04.418Z,23.17
2018-01-22T18:47:33.204Z,22.17
2018-01-22T18:50:01.970Z,22.20
2018-01-22T18:52:30.562Z,24.10
2018-01-22T18:54:59.057Z,22.50
2018-01-22T18:57:27.820Z,22.60
2018-01-22T18:59:56.418Z,23.57
2018-01-22T19:02:25.191Z,25.10
2018-01-22T19:04:53.702Z,22.27
2018-01-22T19:07:22.594Z,24.23
2018-01-22T19:09:51.184Z,24.00
2018-01-22T19:12:19.724Z,22.30
2018-01-22T19:14:48.345Z,22.77
2018-01-22T19:17:16.900Z,25.20
2018-01-22T19:19:45.376Z,24.63
2018-01-22T19:22:14.072Z,23.90
2018-01-22T19:24:42.784Z,25.53
2018-01-22T19:27:11.476Z,24.83
2018-01-22T19:29:40.320Z,23.93
2018-01-22T19:32:09.341Z,24.57
2018-01-22T19:34:38.116Z,26.30
2018-01-22T19:37:06.749Z,23.80
2018-01-22T19:39:35.258Z,24.50
2018-01-22T19:42:04.319Z,25.70
2018-01-22T19:44:32.917Z,27.70
2018-01-22T19:47:01.572Z,25.87
2018-01-22T19:49:30.258Z,24.33
2018-01-22T19:51:58.917Z,25.50
2018-01-22T19:54:27.790Z,24.97
2018-01-22T19:57:01.523Z,25.23
2018-01-22T19:59:33.507Z,24.87
2018-01-22T20:02:03.142Z,24.70
2018-01-22T20:04:32.264Z,24.70
2018-01-22T20:07:01.059Z,24.80
2018-01-22T20:09:29.857Z,26.20
2018-01-22T20:11:59.348Z,24.27
2018-01-22T20:14:28.090Z,26.20
2018-01-22T20:16:56.715Z,24.07
2018-01-22T20:19:25.392Z,23.40
2018-01-22T20:21:54.545Z,24.10
2018-01-22T20:24:23.212Z,24.00
2018-01-22T20:26:52.076Z,23.10
2018-01-22T20:29:21.168Z,24.90
2018-01-22T20:31:49.803Z,23.73
2018-01-22T20:34:18.965Z,26.17
2018-01-22T20:36:47.616Z,25.37
2018-01-22T20:39:16.195Z,24.90
2018-01-22T20:41:44.836Z,23.90
2018-01-22T20:44:13.569Z,24.87
2018-01-22T20:46:42.200Z,26.27
2018-01-22T20:49:11.080Z,25.67
2018-01-22T20:51:39.897Z,24.40
2018-01-22T20:54:08.853Z,25.20
2018-01-22T20:56:37.769Z,25.90
2018-01-22T20:59:06.837Z,27.10
2018-01-22T21:01:35.522Z,27.30
2018-01-22T21:04:04.601Z,25.67
2018-01-22T21:06:33.328Z,25.83
2018-01-22T21:09:05.537Z,25.77
2018-01-22T21:11:34.114Z,26.90
2018-01-22T21:14:02.926Z,24.20
2018-01-22T21:16:31.598Z,24.80
2018-01-22T21:19:00.195Z,25.00
2018-01-22T21:21:29.006Z,23.20
2018-01-22T21:23:57.551Z,24.07
2018-01-22T21:26:26.392Z,24.57
2018-01-22T21:28:54.990Z,26.10
2018-01-22T21:31:23.588Z,24.40
2018-01-22T21:33:52.285Z,24.00
2018-01-22T21:36:21.011Z,22.10
2018-01-22T21:38:49.559Z,23.87
2018-01-22T21:41:18.586Z,22.80
2018-01-22T21:43:48.238Z,24.57
2018-01-22T21:46:16.812Z,26.20
2018-01-22T21:48:45.580Z,24.93
2018-01-22T21:51:14.244Z,22.90
2018-01-22T21:53:42.876Z,23.47
2018-01-22T21:56:11.712Z,23.47
2018-01-22T21:58:40.501Z,24.30
2018-01-22T22:01:09.393Z,24.20
2018-01-22T22:03:39.725Z,24.07
2018-01-22T22:06:08.515Z,25.20
2018-01-22T22:08:37.194Z,22.80
2018-01-22T22:11:05.740Z,23.30
2018-01-22T22:13:35.456Z,23.97
2018-01-22T22:16:04.208Z,24.07
2018-01-22T22:18:33.085Z,24.43
2018-01-22T22:21:01.816Z,25.33
2018-01-22T22:23:30.380Z,22.93
2018-01-22T22:25:59.165Z,23.47
2018-01-22T22:28:28.152Z,24.30
2018-01-22T22:30:56.926Z,23.20
2018-01-22T22:33:25.595Z,23.37
2018-01-22T22:35:54.220Z,23.70
2018-01-22T22:38:22.797Z,23.40
2018-01-22T22:40:51.546Z,24.80
2018-01-22T22:43:20.337Z,23.47
2018-01-22T22:45:49.469Z,23.33
2018-01-22T22:48:17.987Z,23.67
2018-01-22T22:50:46.624Z,23.90
2018-01-22T22:53:15.146Z,22.77
2018-01-22T22:55:43.749Z,24.80
2018-01-22T22:58:12.370Z,23.43
2018-01-22T23:00:42.247Z,23.40
2018-01-22T23:03:10.739Z,24.20
2018-01-22T23:05:39.544Z,23.43
2018-01-22T23:08:08.077Z,25.60
2018-01-22T23:10:36.912Z,25.40
2018-01-22T23:13:05.684Z,25.20
2018-01-22T23:15:34.444Z,23.87
2018-01-22T23:18:03.207Z,23.23
2018-01-22T23:20:31.936Z,22.97
2018-01-22T23:23:00.485Z,22.47
2018-01-22T23:25:29.325Z,22.50
2018-01-22T23:27:57.966Z,24.03
2018-01-22T23:30:26.618Z,23.23
2018-01-22T23:32:55.485Z,23.37
2018-01-22T23:35:24.545Z,21.97
2018-01-22T23:37:53.348Z,22.27
2018-01-22T23:40:21.913Z,22.40
2018-01-22T23:42:50.956Z,22.10
2018-01-22T23:45:19.540Z,23.40
2018-01-22T23:47:48.097Z,21.90
2018-01-22T23:50:16.755Z,24.20
2018-01-22T23:52:45.562Z,22.43
2018-01-22T23:55:14.357Z,24.37
2018-01-22T23:57:42.907Z,21.83
